createdAt,value
2023-04-14T00:01:15.028Z,100.00
2023-04-14T00:06:37.122Z,100.00
2023-04-14T00:11:58.932Z,100.00
2023-04-14T00:17:20.797Z,100.00
2023-04-14T00:22:42.666Z,100.00
2023-04-14T00:28:04.577Z,100.00
2023-04-14T00:33:26.416Z,100.00
2023-04-14T00:38:48.261Z,100.00
2023-04-14T00:44:10.113Z,100.00
2023-04-14T00:49:32.118Z,100.00
2023-04-14T00:54:54.104Z,100.00
2023-04-14T01:00:16.296Z,100.00
2023-04-14T01:05:38.152Z,100.00
2023-04-14T01:11:20.768Z,100.00
2023-04-14T01:16:43.329Z,100.00
2023-04-14T01:22:09.199Z,100.00
2023-04-14T01:27:36.335Z,100.00
2023-04-14T01:33:03.530Z,100.00
2023-04-14T01:38:27.717Z,100.00
2023-04-14T01:43:53.822Z,100.00
2023-04-14T01:49:18.222Z,100.00
2023-04-14T01:54:42.583Z,100.00
2023-04-14T02:00:07.570Z,100.00
2023-04-14T02:05:31.527Z,100.00
2023-04-14T02:10:57.568Z,100.00
2023-04-14T02:16:20.213Z,100.00
2023-04-14T02:21:42.655Z,100.00
2023-04-14T02:27:11.791Z,100.00
2023-04-14T02:32:36.299Z,100.00
2023-04-14T02:38:07.353Z,100.00
2023-04-14T02:43:32.220Z,100.00
2023-04-14T02:48:55.009Z,100.00
2023-04-14T02:54:18.700Z,100.00
2023-04-14T02:59:42.054Z,100.00
2023-04-14T03:05:05.693Z,100.00
2023-04-14T03:10:28.199Z,100.00
2023-04-14T03:15:52.892Z,100.00
2023-04-14T03:21:15.889Z,100.00
2023-04-14T03:26:38.822Z,100.00
2023-04-14T03:32:05.119Z,100.00
2023-04-14T03:37:28.745Z,100.00
2023-04-14T03:42:51.059Z,100.00
2023-04-14T03:48:14.570Z,100.00
2023-04-14T03:53:38.134Z,100.00
2023-04-14T03:59:01.323Z,100.00
2023-04-14T04:04:24.037Z,100.00
2023-04-14T04:09:48.277Z,100.00
2023-04-14T04:15:10.479Z,100.00
2023-04-14T04:20:34.573Z,100.00
2023-04-14T04:25:56.518Z,100.00
2023-04-14T04:31:20.005Z,100.00
2023-04-14T04:36:42.972Z,100.00
2023-04-14T04:42:06.061Z,100.00
2023-04-14T04:47:27.886Z,100.00
2023-04-14T04:52:49.713Z,100.00
2023-04-14T04:58:11.557Z,100.00
2023-04-14T05:03:33.447Z,100.00
2023-04-14T05:08:55.863Z,100.00
2023-04-14T05:14:17.664Z,100.00
2023-04-14T05:19:39.520Z,100.00
2023-04-14T05:25:01.468Z,100.00
2023-04-14T05:30:23.587Z,100.00
2023-04-14T05:35:45.925Z,100.00
2023-04-14T05:41:07.809Z,100.00
2023-04-14T05:46:29.665Z,100.00
2023-04-14T05:51:54.210Z,100.00
2023-04-14T05:57:15.977Z,100.00
2023-04-14T06:02:41.855Z,100.00
2023-04-14T06:08:03.895Z,100.00
2023-04-14T06:13:25.771Z,100.00
2023-04-14T06:18:47.601Z,100.00
2023-04-14T06:24:09.457Z,100.00
2023-04-14T06:29:31.355Z,100.00
2023-04-14T06:34:53.551Z,100.00
2023-04-14T06:40:15.376Z,95.24
2023-04-14T06:45:37.340Z,89.54
2023-04-14T06:50:59.358Z,72.92
2023-04-14T06:56:21.208Z,73.02
2023-04-14T07:01:43.119Z,61.02
2023-04-14T07:07:05.076Z,59.67
2023-04-14T07:12:26.927Z,62.23
2023-04-14T07:17:48.904Z,50.84
2023-04-14T07:23:10.730Z,47.06
2023-04-14T07:28:32.615Z,45.75
2023-04-14T07:33:54.443Z,43.75
2023-04-14T07:39:16.551Z,43.46
2023-04-14T07:44:38.510Z,43.92
2023-04-14T07:50:00.434Z,47.38
2023-04-14T07:55:22.290Z,46.37
2023-04-14T08:00:44.181Z,43.22
2023-04-14T08:06:06.472Z,42.35
2023-04-14T08:11:28.354Z,42.01
2023-04-14T08:16:50.338Z,40.63
2023-04-14T08:22:12.458Z,42.46
2023-04-14T08:27:34.285Z,47.58
2023-04-14T08:32:58.897Z,48.94
2023-04-14T08:38:21.119Z,46.17
2023-04-14T08:43:43.093Z,49.72
2023-04-14T08:49:07.222Z,52.79
2023-04-14T08:54:30.030Z,57.82
2023-04-14T08:59:52.538Z,49.71
2023-04-14T09:05:15.390Z,50.80
2023-04-14T09:10:38.116Z,54.71
2023-04-14T09:15:59.999Z,55.20
2023-04-14T09:21:50.329Z,55.37
2023-04-14T09:27:05.469Z,53.28
2023-04-14T09:32:27.398Z,51.83
2023-04-14T09:37:49.197Z,51.77
2023-04-14T09:43:27.725Z,51.46
2023-04-14T09:48:56.848Z,57.37
2023-04-14T09:54:26.186Z,56.78
2023-04-14T09:59:48.018Z,52.72
2023-04-14T10:05:10.179Z,57.88
2023-04-14T10:10:32.218Z,59.38
2023-04-14T10:15:54.191Z,62.65
2023-04-14T10:21:16.502Z,66.39
2023-04-14T10:26:38.385Z,62.31
2023-04-14T10:32:06.325Z,62.75
2023-04-14T10:37:28.316Z,63.92
2023-04-14T10:42:54.439Z,66.71
2023-04-14T10:48:16.581Z,65.20
2023-04-14T10:53:48.553Z,63.66
2023-04-14T10:59:10.411Z,68.12
2023-04-14T11:04:32.352Z,69.06
2023-04-14T11:09:58.526Z,67.13
2023-04-14T11:15:20.396Z,68.22
2023-04-14T11:20:42.480Z,64.06
2023-04-14T11:26:08.828Z,61.70
2023-04-14T11:31:30.728Z,61.26
2023-04-14T11:36:52.685Z,61.20
2023-04-14T11:42:14.599Z,63.07
2023-04-14T11:47:36.463Z,63.78
2023-04-14T11:53:01.239Z,62.78
2023-04-14T11:58:26.291Z,62.73
2023-04-14T12:03:48.348Z,65.43
2023-04-14T12:09:10.251Z,61.86
2023-04-14T12:14:32.213Z,61.23
2023-04-14T12:19:54.036Z,59.93
2023-04-14T12:25:15.912Z,59.87
2023-04-14T12:30:37.987Z,59.16
2023-04-14T12:36:05.075Z,58.96
2023-04-14T12:41:27.059Z,56.78
2023-04-14T12:46:52.831Z,55.74
2023-04-14T12:52:38.165Z,55.80
2023-04-14T12:58:00.040Z,56.40
2023-04-14T13:03:22.105Z,59.06
2023-04-14T13:08:48.956Z,60.67
2023-04-14T13:14:10.778Z,61.65
2023-04-14T13:19:32.696Z,57.63
2023-04-14T13:24:55.427Z,59.61
2023-04-14T13:30:17.370Z,59.19
2023-04-14T13:35:39.777Z,57.06
2023-04-14T13:41:01.663Z,57.94
2023-04-14T13:46:23.599Z,55.88
2023-04-14T13:51:45.458Z,53.84
2023-04-14T13:57:07.303Z,53.09
2023-04-14T14:02:29.262Z,54.36
2023-04-14T14:07:51.227Z,51.76
2023-04-14T14:13:13.069Z,52.96
2023-04-14T14:18:36.499Z,51.61
2023-04-14T14:23:58.367Z,52.43
2023-04-14T14:29:20.205Z,51.96
2023-04-14T14:34:42.373Z,51.51
2023-04-14T14:40:04.607Z,49.93
2023-04-14T14:45:30.423Z,50.86
2023-04-14T14:50:52.952Z,54.33
2023-04-14T14:56:14.712Z,53.44
2023-04-14T15:01:36.695Z,52.41
2023-04-14T15:06:58.616Z,51.73
2023-04-14T15:12:20.480Z,52.24
2023-04-14T15:17:42.343Z,55.15
2023-04-14T15:23:04.252Z,57.05
2023-04-14T15:28:26.092Z,58.82
2023-04-14T15:33:47.884Z,59.13
2023-04-14T15:39:09.670Z,58.74
2023-04-14T15:44:31.477Z,59.51
2023-04-14T15:50:12.997Z,60.63
2023-04-14T15:55:35.196Z,62.88
2023-04-14T16:00:57.083Z,63.51
2023-04-14T16:06:18.972Z,63.74
2023-04-14T16:11:40.845Z,63.81
2023-04-14T16:17:02.670Z,66.26
2023-04-14T16:22:24.490Z,65.92
2023-04-14T16:27:46.305Z,66.00
2023-04-14T16:33:08.202Z,66.70
2023-04-14T16:38:30.526Z,66.86
2023-04-14T16:43:52.310Z,68.04
2023-04-14T16:49:14.133Z,68.54
2023-04-14T16:54:36.017Z,69.19
2023-04-14T16:59:57.861Z,69.83
2023-04-14T17:05:20.397Z,70.25
2023-04-14T17:10:42.251Z,70.68
2023-04-14T17:16:08.783Z,72.16
2023-04-14T17:21:31.560Z,72.74
2023-04-14T17:26:53.359Z,73.93
2023-04-14T17:32:15.226Z,73.81
2023-04-14T17:37:37.114Z,74.47
2023-04-14T17:42:58.984Z,74.98
2023-04-14T17:48:20.871Z,76.42
2023-04-14T17:53:42.730Z,76.25
2023-04-14T17:59:04.598Z,76.21
2023-04-14T18:04:26.478Z,77.69
2023-04-14T18:09:48.318Z,77.43
2023-04-14T18:15:10.288Z,77.04
2023-04-14T18:20:32.110Z,77.74
2023-04-14T18:31:26.260Z,77.04
2023-04-14T18:36:48.125Z,78.73
2023-04-14T18:42:10.101Z,78.81
2023-04-14T18:47:31.910Z,78.19
2023-04-14T18:52:53.749Z,78.44
2023-04-14T18:58:15.562Z,78.25
2023-04-14T19:03:37.487Z,78.19
2023-04-14T19:08:59.584Z,77.89
2023-04-14T19:14:21.683Z,78.34
2023-04-14T19:19:43.471Z,78.96
2023-04-14T19:25:05.674Z,79.17
2023-04-14T19:30:27.906Z,77.66
2023-04-14T19:35:49.708Z,78.21
2023-04-14T19:41:11.634Z,78.69
2023-04-14T19:46:33.454Z,79.49
2023-04-14T19:51:55.260Z,79.86
2023-04-14T19:57:17.136Z,79.45
2023-04-14T20:02:39.069Z,80.92
2023-04-14T20:08:00.950Z,80.46
2023-04-14T20:13:23.985Z,80.04
2023-04-14T20:18:45.881Z,80.13
2023-04-14T20:24:07.737Z,81.00
2023-04-14T20:29:29.614Z,80.30
2023-04-14T20:34:51.547Z,80.64
2023-04-14T20:40:13.434Z,81.49
2023-04-14T20:45:35.606Z,81.60
2023-04-14T20:50:57.595Z,81.27
2023-04-14T20:56:19.473Z,81.72
2023-04-14T21:01:41.370Z,81.45
2023-04-14T21:07:03.330Z,82.11
2023-04-14T21:12:25.164Z,81.38
2023-04-14T21:17:57.569Z,82.94
2023-04-14T21:23:19.473Z,81.72
2023-04-14T21:28:41.403Z,82.49
2023-04-14T21:34:03.231Z,82.94
2023-04-14T21:39:25.795Z,83.51
2023-04-14T21:44:47.604Z,83.59
2023-04-14T21:50:09.937Z,85.15
2023-04-14T21:55:31.853Z,84.39
2023-04-14T22:00:53.758Z,84.65
2023-04-14T22:06:17.476Z,83.91
2023-04-14T22:11:39.364Z,84.12
2023-04-14T22:17:01.345Z,85.80
2023-04-14T22:22:23.200Z,85.62
2023-04-14T22:27:45.083Z,84.72
2023-04-14T22:33:07.300Z,84.75
2023-04-14T22:38:29.574Z,85.52
2023-04-14T22:43:51.446Z,84.51
2023-04-14T22:49:13.303Z,86.01
2023-04-14T22:54:35.191Z,85.17
2023-04-14T22:59:57.019Z,86.63
2023-04-14T23:05:20.088Z,85.18
2023-04-14T23:10:41.935Z,84.54
2023-04-14T23:16:03.934Z,85.04
2023-04-14T23:21:25.895Z,86.77
2023-04-14T23:26:47.761Z,86.08
2023-04-14T23:32:09.650Z,86.78
2023-04-14T23:37:31.511Z,86.11
2023-04-14T23:42:53.317Z,85.93
2023-04-14T23:48:15.153Z,86.15
2023-04-14T23:53:36.964Z,84.94
2023-04-14T23:58:59.520Z,86.34
